• Join FlightAware (Why Join?)
  • Login
  • US Flag 
03:44AM EDT


 

Airport Tracker/Info


-or-


 

Live Flight TrackerFlight Track Log ✈ UPS2784 ✈ 16-Apr-2013 ✈ KSDF - KDFW

Flight Track Log - Related Links

Times and Time Zones

All times are in EDT time to prevent confusion due to time zone crossing. See the UPS2784 flight status page for this flight to view local times or setup timezone preferences in your user account.

Time Position Orientation Groundspeed Altitude Reporting Facility
EDT Latitude Longitude Course Direction KTS MPH feet Rate Location/Type
05:32PM 38.1690 -85.7430 165° South 165 190 500  Level FlightAware
05:33PM 38.1420 -85.7330 164° South 190 219 1,800 1,980 Climbing FlightAware
05:33PM 38.1120 -85.7330 180° South 238 274 2,700 2,400 Climbing FlightAware
05:33PM 38.0970 -85.7390 197° South 242 278 3,600 4,380 Climbing FlightAware
05:34PM 38.0840 -85.7540 222° Southwest 241 277 4,900 4,800 Climbing FlightAware
05:34PM 38.0790 -85.7660 242° Southwest 243 280 5,600 4,320 Climbing FlightAware
05:34PM 38.0770 -85.7870 263° West 249 287 6,700 4,080 Climbing FlightAware
05:35PM 38.0760 -85.8320 268° West 260 299 8,700 3,240 Climbing FlightAware
05:35PM 38.0750 -85.8730 268° West 269 310 9,700 1,260 Climbing FlightAware
05:36PM 38.0740 -85.9210 268° West 303 349 9,900 240 Climbing FlightAware
05:36PM 38.0700 -85.9460 259° West 324 373 9,900 1,620 Level FlightAware
05:36PM 38.0350 -86.0120 236° Southwest 362 417 11,400 3,360 Climbing FlightAware
05:37PM 37.9840 -86.0950 232° Southwest 379 436 14,700 4,260 Climbing FlightAware
05:38PM 37.9440 -86.1660 234° Southwest 384 442 17,500 3,600 Climbing FlightAware
05:39PM 37.9060 -86.2450 239° Southwest 407 468 19,500 3,060 Climbing FlightAware
05:39PM 37.8580 -86.3400 237° Southwest 423 487 21,900 2,880 Climbing FlightAware
05:40PM 37.8180 -86.4210 238° Southwest 438 504 23,600 2,700 Climbing FlightAware
05:41PM 37.7750 -86.5090 238° Southwest 445 512 25,500 2,460 Climbing FlightAware
05:41PM 37.7240 -86.6100 237° Southwest 461 531 27,100 2,520 Climbing FlightAware
05:42PM 37.6780 -86.7000 237° Southwest 456 525 29,100 3,300 Climbing FlightAware
05:43PM 37.6280 -86.7990 237° Southwest 438 504 31,800 3,060 Climbing FlightAware
05:43PM 37.5850 -86.8840 237° Southwest 432 497 33,500 1,620 Climbing FlightAware
05:44PM 37.5410 -86.9700 237° Southwest 424 488 34,000 300 Climbing FlightAware
05:45PM 37.4940 -87.0620 237° Southwest 424 488 34,000  Level FlightAware
05:46PM 37.4510 -87.1450 237° Southwest 427 491 34,000  Level FlightAware
05:46PM 37.4080 -87.2310 238° Southwest 426 490 34,000  Level FlightAware
05:47PM 37.3620 -87.3200 237° Southwest 424 488 34,000  Level FlightAware
05:48PM 37.3200 -87.4030 238° Southwest 419 482 34,000  Level FlightAware
05:48PM 37.2750 -87.4880 236° Southwest 417 480 34,000  Level FlightAware
05:49PM 37.2290 -87.5780 237° Southwest 424 488 34,000  Level FlightAware
05:50PM 37.1870 -87.6590 237° Southwest 426 490 34,000  Level FlightAware
05:50PM 37.1410 -87.7480 237° Southwest 423 487 34,000  Level FlightAware
05:51PM 37.1030 -87.8220 237° Southwest 422 486 34,000  Level FlightAware
05:52PM 37.0690 -87.8860 236° Southwest 422 486 34,000  Level FlightAware
05:52PM 37.0110 -87.9980 237° Southwest 422 486 34,000  Level FlightAware
05:53PM 36.9560 -88.1020 237° Southwest 419 482 34,000  Level FlightAware
05:54PM 36.9130 -88.1820 236° Southwest 418 481 34,000  Level FlightAware
05:55PM 36.8700 -88.2660 237° Southwest 421 484 34,000  Level FlightAware
05:55PM 36.8200 -88.3590 236° Southwest 426 490 34,000 60 Level FlightAware
05:56PM 36.7770 -88.4390 236° Southwest 427 491 34,100 60 Climbing FlightAware
05:57PM 36.7330 -88.5210 236° Southwest 425 489 34,100 -120 Level FlightAware
05:57PM 36.6860 -88.6110 237° Southwest 421 484 34,000 -120 Descending FlightAware
05:58PM 36.6430 -88.6910 236° Southwest 420 483 34,000  Level FlightAware
05:59PM 36.6050 -88.7640 237° Southwest 419 482 34,000  Level FlightAware
06:00PM 36.5530 -88.8600 236° Southwest 416 479 34,000  Level FlightAware
06:00PM 36.5190 -88.9240 237° Southwest 416 479 34,000  Level FlightAware
06:01PM 36.4730 -89.0080 236° Southwest 416 479 34,000  Level FlightAware
06:02PM 36.4360 -89.0760 236° Southwest 416 479 34,000  Level FlightAware
06:02PM 36.4000 -89.1430 236° Southwest 416 479 34,000  Level FlightAware
06:03PM 36.3540 -89.2270 236° Southwest 416 479 34,000  Level FlightAware
06:04PM 36.3170 -89.2950 236° Southwest 416 479 34,000  Level FlightAware
06:04PM 36.2810 -89.3620 236° Southwest 416 479 34,000  Level FlightAware
06:05PM 36.2440 -89.4290 236° Southwest 416 479 34,000  Level FlightAware
06:06PM 36.2080 -89.4960 236° Southwest 416 479 34,000  Level FlightAware
06:07PM 36.1620 -89.5800 236° Southwest 416 479 34,000  Level FlightAware
06:07PM 36.1250 -89.6480 236° Southwest 416 479 34,000  Level FlightAware
06:08PM 36.0890 -89.7150 236° Southwest 416 479 34,000  Level FlightAware
06:09PM 36.0520 -89.7820 236° Southwest 416 479 34,000  Level FlightAware
06:09PM 36.0150 -89.8490 236° Southwest 416 479 34,000  Level FlightAware
06:10PM 35.8372 -90.1600 236° Southwest 420 483 34,000  Level Memphis Center
06:11PM 35.7728 -90.2803 237° Southwest 420 483 34,000  Level Memphis Center
06:12PM 35.7061 -90.3953 234° Southwest 420 483 34,000  Level Memphis Center
06:13PM 35.6392 -90.5256 238° Southwest 420 483 34,000  Level Memphis Center
06:14PM 35.5703 -90.6456 235° Southwest 420 483 34,000  Level Memphis Center
06:15PM 35.5011 -90.7650 235° Southwest 426 490 34,000  Level Memphis Center
06:16PM 35.4339 -90.8844 235° Southwest 426 490 34,000  Level Memphis Center
06:17PM 35.3667 -91.0039 235° Southwest 426 490 34,000  Level Memphis Center
06:18PM 35.2972 -91.1203 234° Southwest 426 490 34,000  Level Memphis Center
06:19PM 35.2297 -91.2367 235° Southwest 426 490 34,000  Level Memphis Center
06:20PM 35.1642 -91.3528 235° Southwest 426 490 34,000  Level Memphis Center
06:21PM 35.1025 -91.4739 238° Southwest 427 491 34,000  Level Memphis Center
06:22PM 35.0556 -91.6025 246° West 422 486 34,000  Level Memphis Center
06:23PM 35.0081 -91.7311 246° West 412 474 34,000  Level Memphis Center
06:24PM 34.9608 -91.8572 245° Southwest 412 474 34,000  Level Memphis Center
06:25PM 34.9133 -91.9856 246° West 419 482 34,000  Level Memphis Center
06:26PM 34.8636 -92.1186 246° West 419 482 34,100  Climbing Memphis Center
06:27PM 34.8136 -92.2467 245° Southwest 419 482 34,000 -60 Descending Memphis Center
06:28PM 34.7658 -92.3744 246° West 419 482 34,000  Level Memphis Center
06:29PM 34.7158 -92.4972 244° Southwest 419 482 34,000  Level Memphis Center
06:30PM 34.6675 -92.6272 246° West 419 482 34,000  Level Memphis Center
06:31PM 34.6172 -92.7544 244° Southwest 419 482 34,000  Level Memphis Center
06:32PM 34.5689 -92.8767 244° Southwest 419 482 34,000  Level Memphis Center
06:33PM 34.5203 -93.0114 246° West 424 488 34,100  Climbing Memphis Center
06:34PM 34.4694 -93.1333 243° Southwest 424 488 34,000 -60 Descending Memphis Center
06:35PM 34.4208 -93.2628 246° West 425 489 34,000  Level Memphis Center
06:41PM 34.1830 -94.0130 246° West 384 442 34,000  Level FlightAware
06:42PM 34.1570 -94.1040 251° West 385 443 34,000 -240 Level FlightAware
06:43PM 34.1330 -94.1900 251° West 386 444 33,700 -360 Descending FlightAware
06:43PM 34.1100 -94.2690 251° West 384 442 33,500 -180 Descending FlightAware
06:44PM 34.0910 -94.3380 252° West 384 442 33,500  Level FlightAware
06:45PM 34.0710 -94.4070 251° West 384 442 33,500  Level FlightAware
06:45PM 34.0510 -94.4760 251° West 384 442 33,500  Level FlightAware
06:46PM 34.0270 -94.5620 251° West 384 442 33,500  Level FlightAware
06:47PM 34.0070 -94.6310 251° West 384 442 33,500 -2,640 Level FlightAware
06:48PM 33.9590 -94.8030 251° West 399 459 30,000 -2,940 Descending FlightAware
06:48PM 33.9330 -94.8940 251° West 400 460 29,400 -900 Descending FlightAware
06:49PM 33.9070 -94.9850 251° West 401 461 28,800 -900 Descending FlightAware
06:50PM 33.8790 -95.0780 250° West 407 468 28,200 -780 Descending FlightAware
06:50PM 33.8560 -95.1610 252° West 404 465 27,700 -780 Descending FlightAware
06:51PM 33.8300 -95.2480 250° West 402 463 27,200 -780 Descending FlightAware
06:52PM 33.8030 -95.3430 251° West 399 459 26,600 -780 Descending FlightAware
06:53PM 33.7770 -95.4300 250° West 394 453 26,100 -780 Descending FlightAware
06:53PM 33.7510 -95.5180 250° West 389 448 25,500 -900 Descending FlightAware
06:54PM 33.7270 -95.6000 251° West 387 445 24,900 -840 Descending FlightAware
06:55PM 33.7030 -95.6810 250° West 385 443 24,400 -1,080 Descending FlightAware
06:55PM 33.6750 -95.7740 250° West 384 442 23,400 -1,860 Descending FlightAware
06:56PM 33.6520 -95.8540 251° West 379 436 21,800 -2,400 Descending FlightAware
06:57PM 33.6260 -95.9400 250° West 374 430 20,000 -2,520 Descending FlightAware
06:57PM 33.6010 -96.0220 250° West 367 422 18,300 -2,340 Descending FlightAware
06:58PM 33.5800 -96.0940 251° West 360 414 16,900 -2,340 Descending FlightAware
06:59PM 33.5530 -96.1810 250° West 356 410 15,000 -2,400 Descending FlightAware
07:00PM 33.5240 -96.2490 243° Southwest 350 403 13,500 -2,220 Descending FlightAware
07:00PM 33.4780 -96.3030 224° Southwest 342 394 12,100 -1,440 Descending FlightAware
07:01PM 33.4300 -96.3620 226° Southwest 307 353 11,500 -720 Descending FlightAware
07:02PM 33.3940 -96.4060 226° Southwest 278 320 11,100 -720 Descending FlightAware
07:02PM 33.3510 -96.4560 224° Southwest 277 319 10,500 -900 Descending FlightAware
07:03PM 33.3140 -96.4990 224° Southwest 279 321 9,900 -900 Descending FlightAware
07:04PM 33.2890 -96.5340 229° Southwest 282 325 9,500 -780 Descending FlightAware
07:04PM 33.2800 -96.5700 253° West 282 325 9,200 -780 Descending FlightAware
07:04PM 33.2660 -96.6160 250° West 281 323 8,800 -840 Descending FlightAware
07:05PM 33.2540 -96.6580 251° West 278 320 8,400 -1,020 Descending FlightAware
07:05PM 33.2420 -96.6970 250° West 278 320 7,900 -1,140 Descending FlightAware
07:06PM 33.2300 -96.7390 251° West 276 318 7,400 -1,020 Descending FlightAware
07:06PM 33.2190 -96.7760 250° West 271 312 7,000 -900 Descending FlightAware
07:07PM 33.2130 -96.7960 250° West 266 306 6,800 -1,080 Descending FlightAware
07:07PM 33.2010 -96.8360 250° West 271 312 6,200 -900 Descending FlightAware
07:07PM 33.1900 -96.8740 251° West 270 311 6,000 -1,020 Descending FlightAware
07:08PM 33.1780 -96.9140 250° West 274 315 5,300 -1,440 Descending FlightAware
07:08PM 33.1650 -96.9570 250° West 268 308 4,600 -1,320 Descending FlightAware
07:09PM 33.1550 -96.9910 251° West 253 291 4,100 -780 Descending FlightAware
07:09PM 33.1440 -97.0050 227° Southwest 224 258 4,100 -240 Level FlightAware
07:09PM 33.1310 -97.0150 213° Southwest 217 250 4,000 -960 Descending FlightAware
07:10PM 33.1040 -97.0250 197° South 210 242 3,400 -1,020 Descending FlightAware
07:10PM 33.0790 -97.0250 180° South 206 237 3,100 -600 Descending FlightAware
07:11PM 33.0500 -97.0250 180° South 206 237 2,900 -600 Descending FlightAware
07:11PM 33.0260 -97.0250 180° South 191 220 2,600 -660 Descending FlightAware
07:12PM 33.0010 -97.0250 180° South 170 196 2,300 -660 Descending FlightAware
07:12PM 32.9830 -97.0260 183° South 150 173 2,000 -780 Descending FlightAware
07:13PM 32.9630 -97.0260 180° South 145 167 1,600 -480 Descending FlightAware
07:13PM 32.9480 -97.0260 180° South 145 167 1,600 -900 Level FlightAware
07:14PM 32.9267 -97.0272 180° South 158 182 800 -1,560 Descending Fort Worth Center
07:16PM 32.8968 -97.0380 185° South  Level Estimated